sensor_id;sensor_type;location;lat;lon;timestamp;temperature;humidity
5218;DHT22;26539;51.064;6.346;2023-04-24T00:00:57;11.10;1.00
5218;DHT22;26539;51.064;6.346;2023-04-24T00:03:28;11.10;1.00
5218;DHT22;26539;51.064;6.346;2023-04-24T00:05:54;11.00;1.00
5218;DHT22;26539;51.064;6.346;2023-04-24T00:08:20;11.00;1.00
5218;DHT22;26539;51.064;6.346;2023-04-24T00:10:46;11.00;1.00
5218;DHT22;26539;51.064;6.346;2023-04-24T00:13:11;10.90;1.00
5218;DHT22;26539;51.064;6.346;2023-04-24T00:15:43;10.90;1.00
5218;DHT22;26539;51.064;6.346;2023-04-24T00:18:08;10.90;1.00
5218;DHT22;26539;51.064;6.346;2023-04-24T00:20:40;10.90;1.00
5218;DHT22;26539;51.064;6.346;2023-04-24T00:23:05;10.90;1.00
5218;DHT22;26539;51.064;6.346;2023-04-24T00:25:31;10.90;1.00
5218;DHT22;26539;51.064;6.346;2023-04-24T00:27:57;11.00;1.00
5218;DHT22;26539;51.064;6.346;2023-04-24T00:30:22;11.00;1.00
5218;DHT22;26539;51.064;6.346;2023-04-24T00:32:48;11.00;99.90
5218;DHT22;26539;51.064;6.346;2023-04-24T00:35:13;10.90;99.90
5218;DHT22;26539;51.064;6.346;2023-04-24T00:37:40;10.90;99.90
5218;DHT22;26539;51.064;6.346;2023-04-24T00:40:06;10.90;99.90
5218;DHT22;26539;51.064;6.346;2023-04-24T00:42:41;10.80;99.90
5218;DHT22;26539;51.064;6.346;2023-04-24T00:45:07;10.80;99.90
5218;DHT22;26539;51.064;6.346;2023-04-24T00:47:33;10.80;99.90
5218;DHT22;26539;51.064;6.346;2023-04-24T00:50:02;10.80;99.90
5218;DHT22;26539;51.064;6.346;2023-04-24T00:52:28;10.80;99.90
5218;DHT22;26539;51.064;6.346;2023-04-24T00:54:53;10.70;99.90
5218;DHT22;26539;51.064;6.346;2023-04-24T00:57:19;10.70;99.90
5218;DHT22;26539;51.064;6.346;2023-04-24T00:59:45;10.70;99.90
5218;DHT22;26539;51.064;6.346;2023-04-24T01:02:11;10.70;99.90
5218;DHT22;26539;51.064;6.346;2023-04-24T01:04:37;10.70;99.90
5218;DHT22;26539;51.064;6.346;2023-04-24T01:07:03;10.60;1.00
5218;DHT22;26539;51.064;6.346;2023-04-24T01:09:38;10.60;1.00
5218;DHT22;26539;51.064;6.346;2023-04-24T01:12:05;10.60;1.00
5218;DHT22;26539;51.064;6.346;2023-04-24T01:14:31;10.60;1.00
5218;DHT22;26539;51.064;6.346;2023-04-24T01:16:56;10.60;1.00
5218;DHT22;26539;51.064;6.346;2023-04-24T01:19:23;10.60;1.00
5218;DHT22;26539;51.064;6.346;2023-04-24T01:21:51;10.60;1.00
5218;DHT22;26539;51.064;6.346;2023-04-24T01:24:19;10.60;1.00
5218;DHT22;26539;51.064;6.346;2023-04-24T01:26:45;10.60;1.00
5218;DHT22;26539;51.064;6.346;2023-04-24T01:29:11;10.60;1.00
5218;DHT22;26539;51.064;6.346;2023-04-24T01:31:39;10.60;1.00
5218;DHT22;26539;51.064;6.346;2023-04-24T01:34:05;10.60;1.00
5218;DHT22;26539;51.064;6.346;2023-04-24T01:36:39;10.60;1.00
5218;DHT22;26539;51.064;6.346;2023-04-24T01:39:18;10.60;1.00
5218;DHT22;26539;51.064;6.346;2023-04-24T01:41:48;10.60;1.00
5218;DHT22;26539;51.064;6.346;2023-04-24T01:44:15;10.50;1.00
5218;DHT22;26539;51.064;6.346;2023-04-24T01:46:41;10.50;1.00
5218;DHT22;26539;51.064;6.346;2023-04-24T01:49:07;10.50;30.70
5218;DHT22;26539;51.064;6.346;2023-04-24T01:51:32;10.50;91.50
5218;DHT22;26539;51.064;6.346;2023-04-24T01:53:58;10.50;99.90
5218;DHT22;26539;51.064;6.346;2023-04-24T01:56:24;10.50;99.90
5218;DHT22;26539;51.064;6.346;2023-04-24T01:58:52;10.50;99.90
5218;DHT22;26539;51.064;6.346;2023-04-24T02:01:20;10.50;99.90
5218;DHT22;26539;51.064;6.346;2023-04-24T02:03:46;10.50;99.90
5218;DHT22;26539;51.064;6.346;2023-04-24T02:06:12;10.50;99.90
5218;DHT22;26539;51.064;6.346;2023-04-24T02:08:37;10.50;99.90
5218;DHT22;26539;51.064;6.346;2023-04-24T02:11:03;10.50;99.90
5218;DHT22;26539;51.064;6.346;2023-04-24T02:13:29;10.50;99.90
5218;DHT22;26539;51.064;6.346;2023-04-24T02:15:54;10.50;99.90
5218;DHT22;26539;51.064;6.346;2023-04-24T02:18:20;10.50;99.90
5218;DHT22;26539;51.064;6.346;2023-04-24T02:20:47;10.50;99.90
5218;DHT22;26539;51.064;6.346;2023-04-24T02:23:13;10.50;99.90
5218;DHT22;26539;51.064;6.346;2023-04-24T02:25:39;10.60;99.90
5218;DHT22;26539;51.064;6.346;2023-04-24T02:28:05;10.60;99.90
5218;DHT22;26539;51.064;6.346;2023-04-24T02:30:30;10.60;99.90
5218;DHT22;26539;51.064;6.346;2023-04-24T02:32:56;10.60;99.90
5218;DHT22;26539;51.064;6.346;2023-04-24T02:35:22;10.60;99.90
5218;DHT22;26539;51.064;6.346;2023-04-24T02:37:47;10.60;99.90
5218;DHT22;26539;51.064;6.346;2023-04-24T02:40:13;10.60;99.90
5218;DHT22;26539;51.064;6.346;2023-04-24T02:42:38;10.60;99.90
5218;DHT22;26539;51.064;6.346;2023-04-24T02:45:07;10.60;99.90
5218;DHT22;26539;51.064;6.346;2023-04-24T02:47:32;10.60;99.90
5218;DHT22;26539;51.064;6.346;2023-04-24T02:49:58;10.60;99.90
5218;DHT22;26539;51.064;6.346;2023-04-24T02:52:24;10.60;99.90
5218;DHT22;26539;51.064;6.346;2023-04-24T02:54:49;10.60;99.90
5218;DHT22;26539;51.064;6.346;2023-04-24T02:57:18;10.60;99.90
5218;DHT22;26539;51.064;6.346;2023-04-24T02:59:43;10.60;99.90
5218;DHT22;26539;51.064;6.346;2023-04-24T03:02:09;10.60;99.90
5218;DHT22;26539;51.064;6.346;2023-04-24T03:04:34;10.60;99.90
5218;DHT22;26539;51.064;6.346;2023-04-24T03:07:00;10.60;99.90
5218;DHT22;26539;51.064;6.346;2023-04-24T03:09:28;10.60;99.90
5218;DHT22;26539;51.064;6.346;2023-04-24T03:11:54;10.60;99.90
5218;DHT22;26539;51.064;6.346;2023-04-24T03:14:20;10.60;99.90
5218;DHT22;26539;51.064;6.346;2023-04-24T03:16:46;10.50;99.90
5218;DHT22;26539;51.064;6.346;2023-04-24T03:19:15;10.60;99.90
5218;DHT22;26539;51.064;6.346;2023-04-24T03:21:43;10.50;99.90
5218;DHT22;26539;51.064;6.346;2023-04-24T03:24:09;10.60;99.90
5218;DHT22;26539;51.064;6.346;2023-04-24T03:26:35;10.60;99.90
5218;DHT22;26539;51.064;6.346;2023-04-24T03:29:01;10.50;99.90
5218;DHT22;26539;51.064;6.346;2023-04-24T03:31:26;10.50;99.90
5218;DHT22;26539;51.064;6.346;2023-04-24T03:33:52;10.50;99.90
5218;DHT22;26539;51.064;6.346;2023-04-24T03:36:17;10.50;99.90
5218;DHT22;26539;51.064;6.346;2023-04-24T03:38:44;10.50;99.90
5218;DHT22;26539;51.064;6.346;2023-04-24T03:41:10;10.50;99.90
5218;DHT22;26539;51.064;6.346;2023-04-24T03:43:36;10.50;99.90
5218;DHT22;26539;51.064;6.346;2023-04-24T03:46:01;10.50;99.90
5218;DHT22;26539;51.064;6.346;2023-04-24T03:48:27;10.50;99.90
5218;DHT22;26539;51.064;6.346;2023-04-24T03:50:53;10.40;1.00
5218;DHT22;26539;51.064;6.346;2023-04-24T03:53:21;10.40;1.00
5218;DHT22;26539;51.064;6.346;2023-04-24T03:55:47;10.40;1.00
5218;DHT22;26539;51.064;6.346;2023-04-24T03:58:12;10.40;1.00
5218;DHT22;26539;51.064;6.346;2023-04-24T04:00:41;10.30;1.00
5218;DHT22;26539;51.064;6.346;2023-04-24T04:03:07;10.40;1.00
5218;DHT22;26539;51.064;6.346;2023-04-24T04:05:32;10.40;1.00
5218;DHT22;26539;51.064;6.346;2023-04-24T04:07:58;10.30;1.00
5218;DHT22;26539;51.064;6.346;2023-04-24T04:10:26;10.30;1.00
5218;DHT22;26539;51.064;6.346;2023-04-24T04:12:51;10.30;31.20
5218;DHT22;26539;51.064;6.346;2023-04-24T04:15:17;10.30;99.90
5218;DHT22;26539;51.064;6.346;2023-04-24T04:17:43;10.30;99.90
5218;DHT22;26539;51.064;6.346;2023-04-24T04:20:08;10.20;99.90
5218;DHT22;26539;51.064;6.346;2023-04-24T04:22:36;10.20;99.90
5218;DHT22;26539;51.064;6.346;2023-04-24T04:25:02;10.20;99.90
5218;DHT22;26539;51.064;6.346;2023-04-24T04:27:30;10.20;99.90
5218;DHT22;26539;51.064;6.346;2023-04-24T04:29:58;10.20;99.90
5218;DHT22;26539;51.064;6.346;2023-04-24T04:32:26;10.20;99.90
5218;DHT22;26539;51.064;6.346;2023-04-24T04:34:55;10.20;99.90
5218;DHT22;26539;51.064;6.346;2023-04-24T04:37:20;10.20;99.90
5218;DHT22;26539;51.064;6.346;2023-04-24T04:39:46;10.30;99.90
5218;DHT22;26539;51.064;6.346;2023-04-24T04:42:12;10.20;99.90
5218;DHT22;26539;51.064;6.346;2023-04-24T04:44:54;10.20;99.90
5218;DHT22;26539;51.064;6.346;2023-04-24T04:47:21;10.20;32.20
5218;DHT22;26539;51.064;6.346;2023-04-24T04:49:50;10.20;96.60
5218;DHT22;26539;51.064;6.346;2023-04-24T04:52:17;10.10;99.90
5218;DHT22;26539;51.064;6.346;2023-04-24T04:54:43;10.20;99.90
5218;DHT22;26539;51.064;6.346;2023-04-24T04:57:10;10.20;99.90
5218;DHT22;26539;51.064;6.346;2023-04-24T04:59:35;10.20;1.00
5218;DHT22;26539;51.064;6.346;2023-04-24T05:02:01;10.10;1.00
5218;DHT22;26539;51.064;6.346;2023-04-24T05:04:29;10.10;99.90
5218;DHT22;26539;51.064;6.346;2023-04-24T05:06:57;10.10;99.90
5218;DHT22;26539;51.064;6.346;2023-04-24T05:09:23;10.10;1.00
5218;DHT22;26539;51.064;6.346;2023-04-24T05:11:52;10.00;1.00
5218;DHT22;26539;51.064;6.346;2023-04-24T05:14:23;10.10;1.00
5218;DHT22;26539;51.064;6.346;2023-04-24T05:16:48;10.00;1.00
5218;DHT22;26539;51.064;6.346;2023-04-24T05:19:14;10.10;1.00
5218;DHT22;26539;51.064;6.346;2023-04-24T05:21:40;10.10;99.90
5218;DHT22;26539;51.064;6.346;2023-04-24T05:24:06;10.20;99.90
5218;DHT22;26539;51.064;6.346;2023-04-24T05:26:32;10.20;99.90
5218;DHT22;26539;51.064;6.346;2023-04-24T05:28:58;10.20;26.60
5218;DHT22;26539;51.064;6.346;2023-04-24T05:31:23;10.20;1.00
5218;DHT22;26539;51.064;6.346;2023-04-24T05:33:58;10.20;1.00
5218;DHT22;26539;51.064;6.346;2023-04-24T05:36:26;10.30;35.90
5218;DHT22;26539;51.064;6.346;2023-04-24T05:38:52;10.40;1.00
5218;DHT22;26539;51.064;6.346;2023-04-24T05:41:29;10.50;1.00
5218;DHT22;26539;51.064;6.346;2023-04-24T05:44:04;10.50;99.90
5218;DHT22;26539;51.064;6.346;2023-04-24T05:46:41;10.50;99.90
5218;DHT22;26539;51.064;6.346;2023-04-24T05:49:17;10.50;1.00
5218;DHT22;26539;51.064;6.346;2023-04-24T05:51:46;10.50;99.90
5218;DHT22;26539;51.064;6.346;2023-04-24T05:54:11;10.40;13.60
5218;DHT22;26539;51.064;6.346;2023-04-24T05:56:42;10.30;48.20
5218;DHT22;26539;51.064;6.346;2023-04-24T05:59:08;10.20;99.90
5218;DHT22;26539;51.064;6.346;2023-04-24T06:01:43;10.10;1.00
5218;DHT22;26539;51.064;6.346;2023-04-24T06:04:52;9.90;99.90
5218;DHT22;26539;51.064;6.346;2023-04-24T06:07:18;9.90;1.00
5218;DHT22;26539;51.064;6.346;2023-04-24T06:09:43;9.80;1.00
5218;DHT22;26539;51.064;6.346;2023-04-24T06:12:09;9.80;1.00
5218;DHT22;26539;51.064;6.346;2023-04-24T06:14:37;9.80;53.50
5218;DHT22;26539;51.064;6.346;2023-04-24T06:17:03;9.80;97.70
5218;DHT22;26539;51.064;6.346;2023-04-24T06:19:28;9.80;99.90
5218;DHT22;26539;51.064;6.346;2023-04-24T06:21:54;9.80;99.90
5218;DHT22;26539;51.064;6.346;2023-04-24T06:24:19;9.80;99.90
5218;DHT22;26539;51.064;6.346;2023-04-24T06:26:45;9.80;99.90
5218;DHT22;26539;51.064;6.346;2023-04-24T06:29:11;9.90;99.90
5218;DHT22;26539;51.064;6.346;2023-04-24T06:31:36;10.00;99.90
5218;DHT22;26539;51.064;6.346;2023-04-24T06:34:03;10.00;99.90
5218;DHT22;26539;51.064;6.346;2023-04-24T06:36:28;10.00;99.90
5218;DHT22;26539;51.064;6.346;2023-04-24T06:38:54;10.10;54.40
5218;DHT22;26539;51.064;6.346;2023-04-24T06:41:20;10.00;27.30
5218;DHT22;26539;51.064;6.346;2023-04-24T06:43:46;9.90;16.50
5218;DHT22;26539;51.064;6.346;2023-04-24T06:46:11;9.90;99.90
5218;DHT22;26539;51.064;6.346;2023-04-24T06:48:37;9.90;99.90
5218;DHT22;26539;51.064;6.346;2023-04-24T06:51:03;9.80;91.20
5218;DHT22;26539;51.064;6.346;2023-04-24T06:53:28;9.80;2.60
5218;DHT22;26539;51.064;6.346;2023-04-24T06:55:54;9.80;22.80
5218;DHT22;26539;51.064;6.346;2023-04-24T06:58:20;9.80;9.20
5218;DHT22;26539;51.064;6.346;2023-04-24T07:00:46;9.70;47.60
5218;DHT22;26539;51.064;6.346;2023-04-24T07:03:11;9.70;99.90
5218;DHT22;26539;51.064;6.346;2023-04-24T07:05:37;9.70;99.90
5218;DHT22;26539;51.064;6.346;2023-04-24T07:08:03;9.70;99.90
5218;DHT22;26539;51.064;6.346;2023-04-24T07:10:29;9.60;99.90
5218;DHT22;26539;51.064;6.346;2023-04-24T07:12:55;9.60;99.90
5218;DHT22;26539;51.064;6.346;2023-04-24T07:15:22;9.50;99.90
5218;DHT22;26539;51.064;6.346;2023-04-24T07:17:50;9.40;99.90
5218;DHT22;26539;51.064;6.346;2023-04-24T07:20:15;9.30;99.90
5218;DHT22;26539;51.064;6.346;2023-04-24T07:22:41;9.30;99.90
5218;DHT22;26539;51.064;6.346;2023-04-24T07:25:07;9.30;99.90
5218;DHT22;26539;51.064;6.346;2023-04-24T07:27:34;9.20;99.90
5218;DHT22;26539;51.064;6.346;2023-04-24T07:30:00;9.00;99.90
5218;DHT22;26539;51.064;6.346;2023-04-24T07:32:26;8.90;94.90
5218;DHT22;26539;51.064;6.346;2023-04-24T07:34:51;8.90;99.90
5218;DHT22;26539;51.064;6.346;2023-04-24T07:37:17;8.80;99.90
5218;DHT22;26539;51.064;6.346;2023-04-24T07:39:43;8.80;99.90
5218;DHT22;26539;51.064;6.346;2023-04-24T07:42:08;8.80;99.90
5218;DHT22;26539;51.064;6.346;2023-04-24T07:44:34;8.80;99.90
5218;DHT22;26539;51.064;6.346;2023-04-24T07:47:01;8.80;1.00
5218;DHT22;26539;51.064;6.346;2023-04-24T07:49:26;8.90;1.00
5218;DHT22;26539;51.064;6.346;2023-04-24T07:51:53;8.90;1.00
5218;DHT22;26539;51.064;6.346;2023-04-24T07:54:18;8.90;1.00
5218;DHT22;26539;51.064;6.346;2023-04-24T07:56:44;9.00;1.00
5218;DHT22;26539;51.064;6.346;2023-04-24T07:59:10;9.00;99.90
5218;DHT22;26539;51.064;6.346;2023-04-24T08:01:36;9.00;99.90
5218;DHT22;26539;51.064;6.346;2023-04-24T08:04:01;9.00;99.90
5218;DHT22;26539;51.064;6.346;2023-04-24T08:06:28;9.00;99.90
5218;DHT22;26539;51.064;6.346;2023-04-24T08:08:56;9.10;99.90
5218;DHT22;26539;51.064;6.346;2023-04-24T08:11:21;9.10;99.90
5218;DHT22;26539;51.064;6.346;2023-04-24T08:13:48;9.20;99.90
5218;DHT22;26539;51.064;6.346;2023-04-24T08:16:14;9.20;99.90
5218;DHT22;26539;51.064;6.346;2023-04-24T08:18:40;9.20;99.90
5218;DHT22;26539;51.064;6.346;2023-04-24T08:21:05;9.20;99.90
5218;DHT22;26539;51.064;6.346;2023-04-24T08:23:31;9.20;99.90
5218;DHT22;26539;51.064;6.346;2023-04-24T08:25:56;9.20;99.90
5218;DHT22;26539;51.064;6.346;2023-04-24T08:28:23;9.20;99.90
5218;DHT22;26539;51.064;6.346;2023-04-24T08:30:48;9.20;99.90
5218;DHT22;26539;51.064;6.346;2023-04-24T08:33:22;9.20;99.90
5218;DHT22;26539;51.064;6.346;2023-04-24T08:35:48;9.20;99.90
5218;DHT22;26539;51.064;6.346;2023-04-24T08:38:13;9.20;99.90
5218;DHT22;26539;51.064;6.346;2023-04-24T08:40:39;9.30;99.90
5218;DHT22;26539;51.064;6.346;2023-04-24T08:43:05;9.30;99.90
5218;DHT22;26539;51.064;6.346;2023-04-24T08:45:32;9.40;99.90
5218;DHT22;26539;51.064;6.346;2023-04-24T08:47:58;9.40;99.90
5218;DHT22;26539;51.064;6.346;2023-04-24T08:50:25;9.40;99.90
5218;DHT22;26539;51.064;6.346;2023-04-24T08:52:51;9.50;96.50
5218;DHT22;26539;51.064;6.346;2023-04-24T08:55:19;9.50;99.90
5218;DHT22;26539;51.064;6.346;2023-04-24T08:57:50;9.60;99.90
5218;DHT22;26539;51.064;6.346;2023-04-24T09:00:16;9.70;99.90
5218;DHT22;26539;51.064;6.346;2023-04-24T09:02:42;9.70;99.90
5218;DHT22;26539;51.064;6.346;2023-04-24T09:05:12;9.80;99.90
5218;DHT22;26539;51.064;6.346;2023-04-24T09:07:39;10.00;99.90
5218;DHT22;26539;51.064;6.346;2023-04-24T09:10:07;10.00;99.90
5218;DHT22;26539;51.064;6.346;2023-04-24T09:12:34;10.20;29.00
5218;DHT22;26539;51.064;6.346;2023-04-24T09:15:00;10.20;1.00
5218;DHT22;26539;51.064;6.346;2023-04-24T09:17:28;10.40;1.00
5218;DHT22;26539;51.064;6.346;2023-04-24T09:19:54;10.50;1.00
5218;DHT22;26539;51.064;6.346;2023-04-24T09:22:20;10.70;99.90
5218;DHT22;26539;51.064;6.346;2023-04-24T09:24:46;10.90;99.90
5218;DHT22;26539;51.064;6.346;2023-04-24T09:27:13;11.10;1.00
5218;DHT22;26539;51.064;6.346;2023-04-24T09:29:55;11.30;15.40
5218;DHT22;26539;51.064;6.346;2023-04-24T09:32:22;11.40;48.90
5218;DHT22;26539;51.064;6.346;2023-04-24T09:35:04;11.50;1.00
5218;DHT22;26539;51.064;6.346;2023-04-24T09:37:30;11.50;1.00
5218;DHT22;26539;51.064;6.346;2023-04-24T09:42:43;12.10;1.00
5218;DHT22;26539;51.064;6.346;2023-04-24T09:45:10;12.50;99.90
5218;DHT22;26539;51.064;6.346;2023-04-24T09:47:40;12.80;1.00
5218;DHT22;26539;51.064;6.346;2023-04-24T09:50:13;13.30;99.90
5218;DHT22;26539;51.064;6.346;2023-04-24T09:52:46;13.50;1.00
5218;DHT22;26539;51.064;6.346;2023-04-24T09:55:21;13.90;99.90
5218;DHT22;26539;51.064;6.346;2023-04-24T09:57:50;14.40;1.00
5218;DHT22;26539;51.064;6.346;2023-04-24T10:00:32;14.40;1.00
5218;DHT22;26539;51.064;6.346;2023-04-24T10:03:05;14.10;1.00
5218;DHT22;26539;51.064;6.346;2023-04-24T10:05:33;13.80;1.00
5218;DHT22;26539;51.064;6.346;2023-04-24T10:08:04;13.50;1.00
5218;DHT22;26539;51.064;6.346;2023-04-24T10:10:35;13.20;1.00
5218;DHT22;26539;51.064;6.346;2023-04-24T10:13:02;13.00;72.20
5218;DHT22;26539;51.064;6.346;2023-04-24T10:15:28;13.00;99.90
5218;DHT22;26539;51.064;6.346;2023-04-24T10:17:54;13.10;99.90
5218;DHT22;26539;51.064;6.346;2023-04-24T10:20:24;13.40;99.90
5218;DHT22;26539;51.064;6.346;2023-04-24T10:22:53;13.70;99.90
5218;DHT22;26539;51.064;6.346;2023-04-24T10:25:24;13.80;17.80
5218;DHT22;26539;51.064;6.346;2023-04-24T10:27:51;13.60;46.60
5218;DHT22;26539;51.064;6.346;2023-04-24T10:30:19;13.20;93.90
5218;DHT22;26539;51.064;6.346;2023-04-24T10:32:45;13.00;99.90
5218;DHT22;26539;51.064;6.346;2023-04-24T10:35:15;13.00;99.90
5218;DHT22;26539;51.064;6.346;2023-04-24T10:37:45;12.90;99.90
5218;DHT22;26539;51.064;6.346;2023-04-24T10:40:12;12.80;99.90
5218;DHT22;26539;51.064;6.346;2023-04-24T10:42:41;13.30;99.90
5218;DHT22;26539;51.064;6.346;2023-04-24T10:45:20;14.20;99.90
5218;DHT22;26539;51.064;6.346;2023-04-24T10:48:01;15.50;1.00
5218;DHT22;26539;51.064;6.346;2023-04-24T10:50:28;17.30;99.90
5218;DHT22;26539;51.064;6.346;2023-04-24T10:53:06;18.30;99.90
5218;DHT22;26539;51.064;6.346;2023-04-24T10:55:49;18.30;99.90
5218;DHT22;26539;51.064;6.346;2023-04-24T10:58:16;18.30;99.90
5218;DHT22;26539;51.064;6.346;2023-04-24T11:00:43;18.40;99.90
5218;DHT22;26539;51.064;6.346;2023-04-24T11:03:39;17.90;99.90
5218;DHT22;26539;51.064;6.346;2023-04-24T11:06:15;17.10;99.90
5218;DHT22;26539;51.064;6.346;2023-04-24T11:08:45;16.30;99.90
5218;DHT22;26539;51.064;6.346;2023-04-24T11:11:17;15.70;99.90
5218;DHT22;26539;51.064;6.346;2023-04-24T11:16:31;15.30;99.90
5218;DHT22;26539;51.064;6.346;2023-04-24T11:26:57;14.80;99.90
5218;DHT22;26539;51.064;6.346;2023-04-24T11:35:05;13.80;99.90
5218;DHT22;26539;51.064;6.346;2023-04-24T11:37:38;13.50;99.90
5218;DHT22;26539;51.064;6.346;2023-04-24T11:40:05;13.30;99.90
5218;DHT22;26539;51.064;6.346;2023-04-24T11:42:39;13.10;99.90
5218;DHT22;26539;51.064;6.346;2023-04-24T11:45:13;12.90;99.90
5218;DHT22;26539;51.064;6.346;2023-04-24T11:47:39;12.80;1.00
5218;DHT22;26539;51.064;6.346;2023-04-24T11:50:07;12.80;1.00
5218;DHT22;26539;51.064;6.346;2023-04-24T11:52:37;13.00;1.00
5218;DHT22;26539;51.064;6.346;2023-04-24T11:55:03;13.20;99.90
5218;DHT22;26539;51.064;6.346;2023-04-24T11:57:29;13.80;99.90
5218;DHT22;26539;51.064;6.346;2023-04-24T12:00:00;14.40;99.90
5218;DHT22;26539;51.064;6.346;2023-04-24T12:02:26;15.00;99.90
5218;DHT22;26539;51.064;6.346;2023-04-24T12:04:53;15.40;99.90
5218;DHT22;26539;51.064;6.346;2023-04-24T12:07:23;15.40;99.90
5218;DHT22;26539;51.064;6.346;2023-04-24T12:09:57;15.30;99.90
5218;DHT22;26539;51.064;6.346;2023-04-24T12:12:28;15.30;99.90
5218;DHT22;26539;51.064;6.346;2023-04-24T12:14:55;15.60;99.90
5218;DHT22;26539;51.064;6.346;2023-04-24T12:17:29;16.60;99.90
5218;DHT22;26539;51.064;6.346;2023-04-24T12:20:03;18.20;99.90
5218;DHT22;26539;51.064;6.346;2023-04-24T12:22:48;18.90;99.90
5218;DHT22;26539;51.064;6.346;2023-04-24T12:25:18;19.20;99.90
5218;DHT22;26539;51.064;6.346;2023-04-24T12:27:46;18.80;99.90
5218;DHT22;26539;51.064;6.346;2023-04-24T12:30:15;18.50;99.90
5218;DHT22;26539;51.064;6.346;2023-04-24T12:32:46;18.00;99.90
5218;DHT22;26539;51.064;6.346;2023-04-24T12:35:12;17.60;99.90
5218;DHT22;26539;51.064;6.346;2023-04-24T12:37:37;17.20;99.90
5218;DHT22;26539;51.064;6.346;2023-04-24T12:40:11;16.70;99.90
5218;DHT22;26539;51.064;6.346;2023-04-24T12:42:49;16.30;99.90
5218;DHT22;26539;51.064;6.346;2023-04-24T12:45:16;15.80;99.90
5218;DHT22;26539;51.064;6.346;2023-04-24T12:47:43;16.10;99.90
5218;DHT22;26539;51.064;6.346;2023-04-24T12:50:10;16.80;99.90
5218;DHT22;26539;51.064;6.346;2023-04-24T12:52:36;18.00;99.90
5218;DHT22;26539;51.064;6.346;2023-04-24T12:55:03;18.80;99.90
5218;DHT22;26539;51.064;6.346;2023-04-24T12:57:30;18.60;99.90
5218;DHT22;26539;51.064;6.346;2023-04-24T12:59:57;18.10;99.90
5218;DHT22;26539;51.064;6.346;2023-04-24T13:02:24;17.80;99.90
5218;DHT22;26539;51.064;6.346;2023-04-24T13:04:51;17.40;99.90
5218;DHT22;26539;51.064;6.346;2023-04-24T13:07:17;16.90;99.90
5218;DHT22;26539;51.064;6.346;2023-04-24T13:09:43;16.40;99.90
5218;DHT22;26539;51.064;6.346;2023-04-24T13:12:09;15.90;99.90
5218;DHT22;26539;51.064;6.346;2023-04-24T13:14:36;15.40;99.90
5218;DHT22;26539;51.064;6.346;2023-04-24T13:17:02;15.20;99.90
5218;DHT22;26539;51.064;6.346;2023-04-24T13:19:28;14.90;99.90
5218;DHT22;26539;51.064;6.346;2023-04-24T13:21:55;14.80;99.90
5218;DHT22;26539;51.064;6.346;2023-04-24T13:24:21;14.70;99.90
5218;DHT22;26539;51.064;6.346;2023-04-24T13:26:50;14.70;99.90
5218;DHT22;26539;51.064;6.346;2023-04-24T13:29:16;14.80;99.90
5218;DHT22;26539;51.064;6.346;2023-04-24T13:31:41;15.10;99.90
5218;DHT22;26539;51.064;6.346;2023-04-24T13:34:07;15.40;99.90
5218;DHT22;26539;51.064;6.346;2023-04-24T13:36:32;15.80;99.90
5218;DHT22;26539;51.064;6.346;2023-04-24T13:38:58;16.10;99.90
5218;DHT22;26539;51.064;6.346;2023-04-24T13:41:24;16.30;99.90
5218;DHT22;26539;51.064;6.346;2023-04-24T13:43:50;16.70;99.90
5218;DHT22;26539;51.064;6.346;2023-04-24T13:46:16;17.00;99.90
5218;DHT22;26539;51.064;6.346;2023-04-24T13:48:41;17.20;99.90
5218;DHT22;26539;51.064;6.346;2023-04-24T13:51:07;17.50;99.90
5218;DHT22;26539;51.064;6.346;2023-04-24T13:53:33;17.50;99.90
5218;DHT22;26539;51.064;6.346;2023-04-24T13:56:01;17.50;99.90
5218;DHT22;26539;51.064;6.346;2023-04-24T13:58:27;17.30;99.90
5218;DHT22;26539;51.064;6.346;2023-04-24T14:00:52;16.90;99.90
5218;DHT22;26539;51.064;6.346;2023-04-24T14:03:18;16.50;99.90
5218;DHT22;26539;51.064;6.346;2023-04-24T14:05:44;16.20;99.90
5218;DHT22;26539;51.064;6.346;2023-04-24T14:08:09;16.00;99.90
5218;DHT22;26539;51.064;6.346;2023-04-24T14:10:35;15.80;99.90
5218;DHT22;26539;51.064;6.346;2023-04-24T14:13:00;15.70;99.90
5218;DHT22;26539;51.064;6.346;2023-04-24T14:15:26;15.80;99.90
5218;DHT22;26539;51.064;6.346;2023-04-24T14:17:52;16.00;99.90
5218;DHT22;26539;51.064;6.346;2023-04-24T14:20:17;16.10;99.90
5218;DHT22;26539;51.064;6.346;2023-04-24T14:22:43;16.30;99.90
5218;DHT22;26539;51.064;6.346;2023-04-24T14:25:09;16.40;99.90
5218;DHT22;26539;51.064;6.346;2023-04-24T14:27:34;16.40;99.90
5218;DHT22;26539;51.064;6.346;2023-04-24T14:30:00;16.40;99.90
5218;DHT22;26539;51.064;6.346;2023-04-24T14:32:26;16.40;99.90
5218;DHT22;26539;51.064;6.346;2023-04-24T14:34:51;16.30;99.90
5218;DHT22;26539;51.064;6.346;2023-04-24T14:37:17;16.30;99.90
5218;DHT22;26539;51.064;6.346;2023-04-24T14:39:43;16.20;99.90
5218;DHT22;26539;51.064;6.346;2023-04-24T14:42:08;16.20;99.90
5218;DHT22;26539;51.064;6.346;2023-04-24T14:44:34;16.30;99.90
5218;DHT22;26539;51.064;6.346;2023-04-24T14:46:59;16.40;99.90
5218;DHT22;26539;51.064;6.346;2023-04-24T14:49:25;16.20;99.90
5218;DHT22;26539;51.064;6.346;2023-04-24T14:51:51;16.00;99.90
5218;DHT22;26539;51.064;6.346;2023-04-24T14:54:16;16.00;99.90
5218;DHT22;26539;51.064;6.346;2023-04-24T14:56:42;16.00;99.90
5218;DHT22;26539;51.064;6.346;2023-04-24T14:59:10;15.90;99.90
5218;DHT22;26539;51.064;6.346;2023-04-24T15:01:36;15.70;99.90
5218;DHT22;26539;51.064;6.346;2023-04-24T15:04:01;15.60;99.90
5218;DHT22;26539;51.064;6.346;2023-04-24T15:06:27;15.50;99.90
5218;DHT22;26539;51.064;6.346;2023-04-24T15:08:52;15.50;99.90
5218;DHT22;26539;51.064;6.346;2023-04-24T15:11:18;15.60;99.90
5218;DHT22;26539;51.064;6.346;2023-04-24T15:13:43;15.90;99.90
5218;DHT22;26539;51.064;6.346;2023-04-24T15:16:12;16.00;99.90
5218;DHT22;26539;51.064;6.346;2023-04-24T15:18:38;16.00;99.90
5218;DHT22;26539;51.064;6.346;2023-04-24T15:21:03;16.00;99.90
5218;DHT22;26539;51.064;6.346;2023-04-24T15:23:29;15.80;99.90
5218;DHT22;26539;51.064;6.346;2023-04-24T15:25:54;15.60;99.90
5218;DHT22;26539;51.064;6.346;2023-04-24T15:28:20;15.40;99.90
5218;DHT22;26539;51.064;6.346;2023-04-24T15:30:47;15.40;99.90
5218;DHT22;26539;51.064;6.346;2023-04-24T15:33:12;15.50;99.90
5218;DHT22;26539;51.064;6.346;2023-04-24T15:35:38;15.50;99.90
5218;DHT22;26539;51.064;6.346;2023-04-24T15:38:04;15.50;99.90
5218;DHT22;26539;51.064;6.346;2023-04-24T15:40:29;15.40;99.90
5218;DHT22;26539;51.064;6.346;2023-04-24T15:42:55;15.30;99.90
5218;DHT22;26539;51.064;6.346;2023-04-24T15:45:22;15.20;99.90
5218;DHT22;26539;51.064;6.346;2023-04-24T15:47:48;15.40;99.90
5218;DHT22;26539;51.064;6.346;2023-04-24T15:50:13;15.60;99.90
5218;DHT22;26539;51.064;6.346;2023-04-24T15:52:44;15.60;99.90
5218;DHT22;26539;51.064;6.346;2023-04-24T15:55:10;15.70;99.90
5218;DHT22;26539;51.064;6.346;2023-04-24T15:57:35;15.70;99.90
5218;DHT22;26539;51.064;6.346;2023-04-24T16:00:03;15.60;99.90
5218;DHT22;26539;51.064;6.346;2023-04-24T16:02:31;15.50;99.90
5218;DHT22;26539;51.064;6.346;2023-04-24T16:04:57;15.40;99.90
5218;DHT22;26539;51.064;6.346;2023-04-24T16:07:22;15.30;99.90
5218;DHT22;26539;51.064;6.346;2023-04-24T16:09:48;15.20;99.90
5218;DHT22;26539;51.064;6.346;2023-04-24T16:12:13;15.10;99.90